sensor_id;sensor_type;location;lat;lon;timestamp;pressure;altitude;pressure_sealevel;temperature;humidity
74346;BME280;62776;50.518;6.732;2022-12-11T00:01:23;95913.72;;;-0.16;100.00
74346;BME280;62776;50.518;6.732;2022-12-11T00:04:09;95914.56;;;-0.17;100.00
74346;BME280;62776;50.518;6.732;2022-12-11T00:06:55;95921.31;;;-0.19;100.00
74346;BME280;62776;50.518;6.732;2022-12-11T00:09:41;95922.19;;;-0.19;100.00
74346;BME280;62776;50.518;6.732;2022-12-11T00:12:29;95925.59;;;-0.20;100.00
74346;BME280;62776;50.518;6.732;2022-12-11T00:15:16;95917.13;;;-0.17;100.00
74346;BME280;62776;50.518;6.732;2022-12-11T00:18:02;95920.50;;;-0.18;100.00
74346;BME280;62776;50.518;6.732;2022-12-11T00:20:48;95920.47;;;-0.20;100.00
74346;BME280;62776;50.518;6.732;2022-12-11T00:23:35;95924.69;;;-0.22;100.00
74346;BME280;62776;50.518;6.732;2022-12-11T00:26:21;95924.66;;;-0.23;100.00
74346;BME280;62776;50.518;6.732;2022-12-11T00:29:08;95919.50;;;-0.25;100.00
74346;BME280;62776;50.518;6.732;2022-12-11T00:31:59;95925.38;;;-0.30;100.00
74346;BME280;62776;50.518;6.732;2022-12-11T00:34:45;95922.81;;;-0.30;100.00
74346;BME280;62776;50.518;6.732;2022-12-11T00:37:31;95928.59;;;-0.39;100.00
74346;BME280;62776;50.518;6.732;2022-12-11T00:40:17;95926.84;;;-0.41;100.00
74346;BME280;62776;50.518;6.732;2022-12-11T00:43:03;95926.72;;;-0.46;100.00
74346;BME280;62776;50.518;6.732;2022-12-11T00:45:49;95931.09;;;-0.40;100.00
74346;BME280;62776;50.518;6.732;2022-12-11T00:48:35;95932.09;;;-0.34;100.00
74346;BME280;62776;50.518;6.732;2022-12-11T00:51:21;95928.66;;;-0.36;100.00
74346;BME280;62776;50.518;6.732;2022-12-11T00:54:07;95927.94;;;-0.30;100.00
74346;BME280;62776;50.518;6.732;2022-12-11T00:56:55;95920.28;;;-0.30;100.00
74346;BME280;62776;50.518;6.732;2022-12-11T00:59:41;95925.41;;;-0.29;100.00
74346;BME280;62776;50.518;6.732;2022-12-11T01:02:27;95921.22;;;-0.25;100.00
74346;BME280;62776;50.518;6.732;2022-12-11T01:05:13;95923.72;;;-0.27;100.00
74346;BME280;62776;50.518;6.732;2022-12-11T01:07:59;95926.44;;;-0.19;100.00
74346;BME280;62776;50.518;6.732;2022-12-11T01:10:45;95924.59;;;-0.26;100.00
74346;BME280;62776;50.518;6.732;2022-12-11T01:13:32;95915.97;;;-0.31;100.00
74346;BME280;62776;50.518;6.732;2022-12-11T01:16:18;95915.13;;;-0.32;100.00
74346;BME280;62776;50.518;6.732;2022-12-11T01:19:04;95915.91;;;-0.34;100.00
74346;BME280;62776;50.518;6.732;2022-12-11T01:21:50;95915.97;;;-0.31;100.00
74346;BME280;62776;50.518;6.732;2022-12-11T01:24:37;95926.94;;;-0.37;100.00
74346;BME280;62776;50.518;6.732;2022-12-11T01:27:23;95926.94;;;-0.35;100.00
74346;BME280;62776;50.518;6.732;2022-12-11T01:30:10;95926.94;;;-0.35;100.00
74346;BME280;62776;50.518;6.732;2022-12-11T01:32:56;95927.00;;;-0.32;100.00
74346;BME280;62776;50.518;6.732;2022-12-11T01:35:43;95915.97;;;-0.31;100.00
74346;BME280;62776;50.518;6.732;2022-12-11T01:38:29;95915.91;;;-0.34;100.00
74346;BME280;62776;50.518;6.732;2022-12-11T01:41:16;95908.25;;;-0.36;100.00
74346;BME280;62776;50.518;6.732;2022-12-11T01:44:06;95906.50;;;-0.37;100.00
74346;BME280;62776;50.518;6.732;2022-12-11T01:46:53;95902.41;;;-0.30;100.00
74346;BME280;62776;50.518;6.732;2022-12-11T01:49:41;95897.22;;;-0.33;100.00
74346;BME280;62776;50.518;6.732;2022-12-11T01:52:27;95898.94;;;-0.32;100.00
74346;BME280;62776;50.518;6.732;2022-12-11T01:55:13;95894.53;;;-0.39;100.00
74346;BME280;62776;50.518;6.732;2022-12-11T01:58:01;95899.44;;;-0.48;100.00
74346;BME280;62776;50.518;6.732;2022-12-11T02:00:48;95901.94;;;-0.51;100.00
74346;BME280;62776;50.518;6.732;2022-12-11T02:03:34;95895.88;;;-0.56;100.00
74346;BME280;62776;50.518;6.732;2022-12-11T02:06:36;95896.38;;;-0.73;100.00
74346;BME280;62776;50.518;6.732;2022-12-11T02:09:26;95895.81;;;-0.60;100.00
74346;BME280;62776;50.518;6.732;2022-12-11T02:13:03;95900.50;;;-0.78;100.00
74346;BME280;62776;50.518;6.732;2022-12-11T02:21:55;95891.53;;;-0.61;100.00
74346;BME280;62776;50.518;6.732;2022-12-11T02:25:15;95896.44;;;-0.70;100.00
74346;BME280;62776;50.518;6.732;2022-12-11T02:28:16;95893.25;;;-0.60;100.00
74346;BME280;62776;50.518;6.732;2022-12-11T02:31:13;95895.72;;;-0.64;100.00
74346;BME280;62776;50.518;6.732;2022-12-11T02:34:11;95882.97;;;-0.64;100.00
74346;BME280;62776;50.518;6.732;2022-12-11T02:37:03;95883.03;;;-0.61;100.00
74346;BME280;62776;50.518;6.732;2022-12-11T02:39:53;95880.25;;;-0.70;100.00
74346;BME280;62776;50.518;6.732;2022-12-11T02:42:42;95881.06;;;-0.73;100.00
74346;BME280;62776;50.518;6.732;2022-12-11T02:45:29;95876.78;;;-0.74;100.00
74346;BME280;62776;50.518;6.732;2022-12-11T02:48:17;95882.53;;;-0.82;100.00
74346;BME280;62776;50.518;6.732;2022-12-11T02:51:05;95887.53;;;-0.87;100.00
74346;BME280;62776;50.518;6.732;2022-12-11T02:53:56;95891.63;;;-0.93;100.00
74346;BME280;62776;50.518;6.732;2022-12-11T02:56:52;95887.22;;;-1.02;100.00
74346;BME280;62776;50.518;6.732;2022-12-11T02:59:41;95877.00;;;-1.02;100.00
74346;BME280;62776;50.518;6.732;2022-12-11T03:02:29;95891.53;;;-0.98;100.00
74346;BME280;62776;50.518;6.732;2022-12-11T03:05:15;95875.44;;;-0.97;100.00
74346;BME280;62776;50.518;6.732;2022-12-11T03:08:01;95878.72;;;-1.01;100.00
74346;BME280;62776;50.518;6.732;2022-12-11T03:10:48;95886.41;;;-0.99;100.00
74346;BME280;62776;50.518;6.732;2022-12-11T03:13:34;95886.41;;;-0.99;100.00
74346;BME280;62776;50.518;6.732;2022-12-11T03:16:35;95878.41;;;-1.14;100.00
74346;BME280;62776;50.518;6.732;2022-12-11T03:19:30;95887.78;;;-1.13;100.00
74346;BME280;62776;50.518;6.732;2022-12-11T03:25:19;95883.63;;;-1.10;100.00
74346;BME280;62776;50.518;6.732;2022-12-11T03:28:18;95881.91;;;-1.11;100.00
74346;BME280;62776;50.518;6.732;2022-12-11T03:31:10;95883.72;;;-1.05;100.00
74346;BME280;62776;50.518;6.732;2022-12-11T03:34:01;95882.16;;;-0.99;100.00
74346;BME280;62776;50.518;6.732;2022-12-11T03:36:49;95870.47;;;-0.91;100.00
74346;BME280;62776;50.518;6.732;2022-12-11T03:39:39;95878.22;;;-0.86;100.00
74346;BME280;62776;50.518;6.732;2022-12-11T03:42:27;95868.03;;;-0.85;100.00
74346;BME280;62776;50.518;6.732;2022-12-11T03:45:15;95865.38;;;-0.89;100.00
74346;BME280;62776;50.518;6.732;2022-12-11T03:48:02;95866.41;;;-0.81;100.00
74346;BME280;62776;50.518;6.732;2022-12-11T03:50:49;95865.66;;;-0.77;100.00
74346;BME280;62776;50.518;6.732;2022-12-11T03:53:37;95860.50;;;-0.79;100.00
74346;BME280;62776;50.518;6.732;2022-12-11T03:56:25;95865.75;;;-0.73;100.00
74346;BME280;62776;50.518;6.732;2022-12-11T03:59:13;95872.63;;;-0.69;100.00
74346;BME280;62776;50.518;6.732;2022-12-11T04:01:59;95869.19;;;-0.71;100.00
74346;BME280;62776;50.518;6.732;2022-12-11T04:04:45;95864.97;;;-0.69;100.00
74346;BME280;62776;50.518;6.732;2022-12-11T04:07:31;95863.28;;;-0.70;100.00
74346;BME280;62776;50.518;6.732;2022-12-11T04:10:17;95865.03;;;-0.66;100.00
74346;BME280;62776;50.518;6.732;2022-12-11T04:13:03;95866.03;;;-0.61;100.00
74346;BME280;62776;50.518;6.732;2022-12-11T04:15:49;95875.38;;;-0.61;100.00
74346;BME280;62776;50.518;6.732;2022-12-11T04:18:35;95869.56;;;-0.54;100.00
74346;BME280;62776;50.518;6.732;2022-12-11T04:21:40;95869.59;;;-0.52;100.00
74346;BME280;62776;50.518;6.732;2022-12-11T04:24:47;95866.13;;;-0.54;100.00
74346;BME280;62776;50.518;6.732;2022-12-11T04:27:34;95868.00;;;-0.47;100.00
74346;BME280;62776;50.518;6.732;2022-12-11T04:30:34;95862.09;;;-0.45;100.00
74346;BME280;62776;50.518;6.732;2022-12-11T04:33:20;95857.06;;;-0.40;100.00
74346;BME280;62776;50.518;6.732;2022-12-11T04:36:07;95857.84;;;-0.44;100.00
74346;BME280;62776;50.518;6.732;2022-12-11T04:38:53;95857.00;;;-0.43;100.00
74346;BME280;62776;50.518;6.732;2022-12-11T04:41:40;95842.59;;;-0.41;100.00
74346;BME280;62776;50.518;6.732;2022-12-11T04:44:26;95844.34;;;-0.39;100.00
74346;BME280;62776;50.518;6.732;2022-12-11T04:47:12;95844.44;;;-0.34;100.00
74346;BME280;62776;50.518;6.732;2022-12-11T04:49:58;95835.97;;;-0.32;100.00
74346;BME280;62776;50.518;6.732;2022-12-11T04:52:44;95836.84;;;-0.31;100.00
74346;BME280;62776;50.518;6.732;2022-12-11T04:55:30;95831.75;;;-0.30;100.00
74346;BME280;62776;50.518;6.732;2022-12-11T04:58:16;95832.63;;;-0.29;100.00
74346;BME280;62776;50.518;6.732;2022-12-11T05:01:17;95829.84;;;-0.40;100.00
74346;BME280;62776;50.518;6.732;2022-12-11T05:04:04;95821.59;;;-0.27;100.00
74346;BME280;62776;50.518;6.732;2022-12-11T05:06:50;95821.59;;;-0.27;100.00
74346;BME280;62776;50.518;6.732;2022-12-11T05:09:36;95826.75;;;-0.25;100.00
74346;BME280;62776;50.518;6.732;2022-12-11T05:12:22;95823.34;;;-0.26;100.00
74346;BME280;62776;50.518;6.732;2022-12-11T05:15:08;95817.47;;;-0.20;100.00
74346;BME280;62776;50.518;6.732;2022-12-11T05:17:55;95833.53;;;-0.26;100.00
74346;BME280;62776;50.518;6.732;2022-12-11T05:20:41;95832.41;;;-0.41;100.00
74346;BME280;62776;50.518;6.732;2022-12-11T05:23:27;95834.00;;;-0.45;100.00
74346;BME280;62776;50.518;6.732;2022-12-11T05:26:17;95833.97;;;-0.46;100.00
74346;BME280;62776;50.518;6.732;2022-12-11T05:29:03;95840.00;;;-0.43;100.00
74346;BME280;62776;50.518;6.732;2022-12-11T05:31:49;95834.97;;;-0.40;100.00
74346;BME280;62776;50.518;6.732;2022-12-11T05:34:36;95828.19;;;-0.38;100.00
74346;BME280;62776;50.518;6.732;2022-12-11T05:37:22;95829.88;;;-0.38;100.00
74346;BME280;62776;50.518;6.732;2022-12-11T05:40:09;95821.22;;;-0.46;100.00
74346;BME280;62776;50.518;6.732;2022-12-11T05:42:57;95824.78;;;-0.38;100.00
74346;BME280;62776;50.518;6.732;2022-12-11T05:45:43;95827.31;;;-0.38;100.00
74346;BME280;62776;50.518;6.732;2022-12-11T05:48:29;95826.50;;;-0.37;100.00
74346;BME280;62776;50.518;6.732;2022-12-11T05:51:16;95825.69;;;-0.36;100.00
74346;BME280;62776;50.518;6.732;2022-12-11T05:54:03;95834.16;;;-0.37;100.00
74346;BME280;62776;50.518;6.732;2022-12-11T05:56:49;95830.72;;;-0.39;100.00
74346;BME280;62776;50.518;6.732;2022-12-11T05:59:36;95829.94;;;-0.35;100.00
74346;BME280;62776;50.518;6.732;2022-12-11T06:02:22;95836.69;;;-0.39;100.00
74346;BME280;62776;50.518;6.732;2022-12-11T06:05:08;95836.56;;;-0.45;100.00
74346;BME280;62776;50.518;6.732;2022-12-11T06:07:54;95831.41;;;-0.46;100.00
74346;BME280;62776;50.518;6.732;2022-12-11T06:10:48;95829.53;;;-0.56;100.00
74346;BME280;62776;50.518;6.732;2022-12-11T06:13:34;95834.81;;;-0.47;100.00
74346;BME280;62776;50.518;6.732;2022-12-11T06:16:22;95826.22;;;-0.51;100.00
74346;BME280;62776;50.518;6.732;2022-12-11T06:19:13;95829.56;;;-0.55;100.00
74346;BME280;62776;50.518;6.732;2022-12-11T06:22:00;95819.47;;;-0.49;100.00
74346;BME280;62776;50.518;6.732;2022-12-11T06:24:46;95817.56;;;-0.59;100.00
74346;BME280;62776;50.518;6.732;2022-12-11T06:27:32;95830.19;;;-0.65;100.00
74346;BME280;62776;50.518;6.732;2022-12-11T06:30:18;95833.47;;;-0.71;100.00
74346;BME280;62776;50.518;6.732;2022-12-11T06:33:05;95822.38;;;-0.73;100.00
74346;BME280;62776;50.518;6.732;2022-12-11T06:35:51;95831.78;;;-0.72;100.00
74346;BME280;62776;50.518;6.732;2022-12-11T06:38:38;95829.97;;;-0.76;100.00
74346;BME280;62776;50.518;6.732;2022-12-11T06:41:24;95825.75;;;-0.74;100.00
74346;BME280;62776;50.518;6.732;2022-12-11T06:44:10;95818.22;;;-0.68;100.00
74346;BME280;62776;50.518;6.732;2022-12-11T06:46:57;95821.72;;;-0.64;100.00
74346;BME280;62776;50.518;6.732;2022-12-11T06:49:43;95825.94;;;-0.66;100.00
74346;BME280;62776;50.518;6.732;2022-12-11T06:52:29;95819.19;;;-0.63;100.00
74346;BME280;62776;50.518;6.732;2022-12-11T06:55:15;95813.25;;;-0.62;100.00
74346;BME280;62776;50.518;6.732;2022-12-11T06:58:01;95818.44;;;-0.58;100.00
74346;BME280;62776;50.518;6.732;2022-12-11T07:00:47;95825.19;;;-0.61;100.00
74346;BME280;62776;50.518;6.732;2022-12-11T07:03:33;95830.31;;;-0.61;100.00
74346;BME280;62776;50.518;6.732;2022-12-11T07:06:19;95832.69;;;-0.68;100.00
74346;BME280;62776;50.518;6.732;2022-12-11T07:09:05;95834.13;;;-0.79;100.00
74346;BME280;62776;50.518;6.732;2022-12-11T07:11:52;95833.16;;;-0.86;100.00
74346;BME280;62776;50.518;6.732;2022-12-11T07:14:38;95839.78;;;-0.94;100.00
74346;BME280;62776;50.518;6.732;2022-12-11T07:17:24;95840.41;;;-1.04;100.00
74346;BME280;62776;50.518;6.732;2022-12-11T07:20:10;95838.47;;;-1.14;100.00
74346;BME280;62776;50.518;6.732;2022-12-11T07:22:56;95844.22;;;-1.24;100.00
74346;BME280;62776;50.518;6.732;2022-12-11T07:25:42;95838.06;;;-1.32;100.00
74346;BME280;62776;50.518;6.732;2022-12-11T07:28:29;95833.56;;;-1.42;100.00
74346;BME280;62776;50.518;6.732;2022-12-11T07:31:21;95837.63;;;-1.50;100.00
74346;BME280;62776;50.518;6.732;2022-12-11T07:34:10;95835.53;;;-2.01;100.00
74346;BME280;62776;50.518;6.732;2022-12-11T07:36:56;95837.22;;;-1.67;100.00
74346;BME280;62776;50.518;6.732;2022-12-11T07:39:43;95839.66;;;-1.71;100.00
74346;BME280;62776;50.518;6.732;2022-12-11T07:42:29;95840.38;;;-1.75;100.00
74346;BME280;62776;50.518;6.732;2022-12-11T07:45:15;95845.41;;;-1.79;100.00
74346;BME280;62776;50.518;6.732;2022-12-11T07:48:01;95844.31;;;-1.90;100.00
74346;BME280;62776;50.518;6.732;2022-12-11T07:50:47;95841.69;;;-1.91;100.00
74346;BME280;62776;50.518;6.732;2022-12-11T07:53:33;95844.13;;;-1.96;100.00
74346;BME280;62776;50.518;6.732;2022-12-11T07:56:19;95839.78;;;-2.00;100.00
74346;BME280;62776;50.518;6.732;2022-12-11T07:59:05;95834.66;;;-2.01;100.00
74346;BME280;62776;50.518;6.732;2022-12-11T08:01:51;95839.59;;;-2.06;100.00
74346;BME280;62776;50.518;6.732;2022-12-11T08:04:38;95835.31;;;-2.08;100.00
74346;BME280;62776;50.518;6.732;2022-12-11T08:07:24;95840.38;;;-2.10;100.00
74346;BME280;62776;50.518;6.732;2022-12-11T08:10:10;95841.25;;;-2.09;100.00
74346;BME280;62776;50.518;6.732;2022-12-11T08:12:56;95842.84;;;-2.11;100.00
74346;BME280;62776;50.518;6.732;2022-12-11T08:15:42;95841.00;;;-2.17;100.00
74346;BME280;62776;50.518;6.732;2022-12-11T08:18:28;95844.44;;;-2.16;100.00
74346;BME280;62776;50.518;6.732;2022-12-11T08:21:20;95844.41;;;-2.18;100.00
74346;BME280;62776;50.518;6.732;2022-12-11T08:24:07;95840.38;;;-2.10;100.00
74346;BME280;62776;50.518;6.732;2022-12-11T08:26:53;95840.66;;;-1.99;100.00
74346;BME280;62776;50.518;6.732;2022-12-11T08:29:39;95842.50;;;-1.92;100.00
74346;BME280;62776;50.518;6.732;2022-12-11T08:32:25;95842.72;;;-1.85;100.00
74346;BME280;62776;50.518;6.732;2022-12-11T08:35:11;95850.47;;;-1.80;100.00
74346;BME280;62776;50.518;6.732;2022-12-11T08:37:58;95842.84;;;-1.79;100.00
74346;BME280;62776;50.518;6.732;2022-12-11T08:40:44;95838.63;;;-1.78;100.00
74346;BME280;62776;50.518;6.732;2022-12-11T08:43:32;95844.69;;;-1.73;100.00
74346;BME280;62776;50.518;6.732;2022-12-11T08:46:18;95841.44;;;-1.67;100.00
74346;BME280;62776;50.518;6.732;2022-12-11T08:49:04;95845.69;;;-1.68;100.00
74346;BME280;62776;50.518;6.732;2022-12-11T08:51:50;95832.19;;;-1.64;100.00
74346;BME280;62776;50.518;6.732;2022-12-11T08:54:37;95849.41;;;-1.55;100.00
74346;BME280;62776;50.518;6.732;2022-12-11T08:57:23;95844.53;;;-1.46;100.00
74346;BME280;62776;50.518;6.732;2022-12-11T09:00:12;95847.16;;;-1.42;100.00
74346;BME280;62776;50.518;6.732;2022-12-11T09:02:58;95840.53;;;-1.35;100.00
74346;BME280;62776;50.518;6.732;2022-12-11T09:05:44;95839.81;;;-1.30;100.00
74346;BME280;62776;50.518;6.732;2022-12-11T09:08:31;95838.97;;;-1.30;100.00
74346;BME280;62776;50.518;6.732;2022-12-11T09:11:20;95832.19;;;-1.28;100.00
74346;BME280;62776;50.518;6.732;2022-12-11T09:14:07;95828.13;;;-1.20;100.00
74346;BME280;62776;50.518;6.732;2022-12-11T09:16:53;95838.25;;;-1.23;100.00
74346;BME280;62776;50.518;6.732;2022-12-11T09:19:39;95827.41;;;-1.16;100.00
74346;BME280;62776;50.518;6.732;2022-12-11T09:22:25;95827.56;;;-1.08;100.00
74346;BME280;62776;50.518;6.732;2022-12-11T09:25:11;95843.03;;;-1.01;100.00
74346;BME280;62776;50.518;6.732;2022-12-11T09:27:57;95836.47;;;-0.90;100.00
74346;BME280;62776;50.518;6.732;2022-12-11T09:30:43;95832.53;;;-0.76;100.00
74346;BME280;62776;50.518;6.732;2022-12-11T09:33:29;95831.63;;;-0.78;100.00
74346;BME280;62776;50.518;6.732;2022-12-11T09:36:15;95827.34;;;-0.80;100.00
74346;BME280;62776;50.518;6.732;2022-12-11T09:39:04;95831.72;;;-0.73;100.00
74346;BME280;62776;50.518;6.732;2022-12-11T09:42:20;95829.88;;;-0.80;100.00
74346;BME280;62776;50.518;6.732;2022-12-11T09:45:13;95835.28;;;-0.67;100.00
74346;BME280;62776;50.518;6.732;2022-12-11T09:48:01;95827.03;;;-0.53;100.00
74346;BME280;62776;50.518;6.732;2022-12-11T09:50:50;95830.66;;;-0.42;100.00
74346;BME280;62776;50.518;6.732;2022-12-11T09:53:38;95827.44;;;-0.32;100.00
74346;BME280;62776;50.518;6.732;2022-12-11T09:56:33;95825.75;;;-0.33;100.00
74346;BME280;62776;50.518;6.732;2022-12-11T10:15:36;95811.06;;;0.00;100.00
74346;BME280;62776;50.518;6.732;2022-12-11T10:18:27;95808.69;;;0.12;100.00
74346;BME280;62776;50.518;6.732;2022-12-11T10:21:15;95811.31;;;0.15;100.00
74346;BME280;62776;50.518;6.732;2022-12-11T10:24:09;95806.19;;;0.14;100.00
74346;BME280;62776;50.518;6.732;2022-12-11T10:26:59;95803.59;;;0.12;100.00
74346;BME280;62776;50.518;6.732;2022-12-11T10:33:05;95806.38;;;0.24;100.00
74346;BME280;62776;50.518;6.732;2022-12-11T10:35:58;95796.28;;;0.33;100.00
74346;BME280;62776;50.518;6.732;2022-12-11T10:38:45;95791.28;;;0.39;100.00
74346;BME280;62776;50.518;6.732;2022-12-11T10:41:41;95781.81;;;0.34;100.00
74346;BME280;62776;50.518;6.732;2022-12-11T10:44:31;95772.66;;;0.46;100.00
74346;BME280;62776;50.518;6.732;2022-12-11T10:47:18;95769.44;;;0.59;100.00
74346;BME280;62776;50.518;6.732;2022-12-11T10:50:04;95767.09;;;0.75;100.00
74346;BME280;62776;50.518;6.732;2022-12-11T10:52:51;95762.13;;;0.82;100.00
74346;BME280;62776;50.518;6.732;2022-12-11T10:55:43;95759.31;;;0.67;100.00
74346;BME280;62776;50.518;6.732;2022-12-11T10:58:31;95762.94;;;0.24;100.00
74346;BME280;62776;50.518;6.732;2022-12-11T11:01:22;95753.44;;;0.71;100.00
74346;BME280;62776;50.518;6.732;2022-12-11T11:04:19;95744.03;;;0.70;100.00
74346;BME280;62776;50.518;6.732;2022-12-11T11:07:20;95747.53;;;0.77;100.00
74346;BME280;62776;50.518;6.732;2022-12-11T11:13:00;95745.03;;;0.81;100.00
74346;BME280;62776;50.518;6.732;2022-12-11T11:15:47;95738.97;;;0.75;100.00
74346;BME280;62776;50.518;6.732;2022-12-11T11:18:34;95738.19;;;0.79;100.00
74346;BME280;62776;50.518;6.732;2022-12-11T11:21:23;95744.13;;;0.78;100.00
74346;BME280;62776;50.518;6.732;2022-12-11T11:24:34;95734.50;;;0.60;100.00
74346;BME280;62776;50.518;6.732;2022-12-11T11:30:29;95737.13;;;0.65;100.00
74346;BME280;62776;50.518;6.732;2022-12-11T11:33:21;95733.75;;;0.67;100.00
74346;BME280;62776;50.518;6.732;2022-12-11T11:36:20;95725.13;;;0.60;100.00
74346;BME280;62776;50.518;6.732;2022-12-11T11:39:18;95733.78;;;0.69;100.00
74346;BME280;62776;50.518;6.732;2022-12-11T11:42:15;95726.19;;;0.75;100.00
74346;BME280;62776;50.518;6.732;2022-12-11T11:45:15;95722.69;;;0.68;100.00
74346;BME280;62776;50.518;6.732;2022-12-11T11:48:13;95719.31;;;0.72;100.00
74346;BME280;62776;50.518;6.732;2022-12-11T11:51:34;95716.63;;;0.62;100.00
74346;BME280;62776;50.518;6.732;2022-12-11T11:54:38;95721.84;;;0.68;100.00
74346;BME280;62776;50.518;6.732;2022-12-11T11:57:37;95715.13;;;0.76;100.00
74346;BME280;62776;50.518;6.732;2022-12-11T12:00:27;95715.22;;;0.82;100.00
74346;BME280;62776;50.518;6.732;2022-12-11T12:03:18;95714.38;;;0.84;100.00
74346;BME280;62776;50.518;6.732;2022-12-11T12:06:09;95714.44;;;0.89;100.00
74346;BME280;62776;50.518;6.732;2022-12-11T12:09:26;95713.25;;;0.64;100.00
74346;BME280;62776;50.518;6.732;2022-12-11T12:15:38;95718.44;;;0.69;100.00
74346;BME280;62776;50.518;6.732;2022-12-11T12:18:58;95713.25;;;0.64;100.00
74346;BME280;62776;50.518;6.732;2022-12-11T12:21:50;95708.38;;;0.81;100.00
74346;BME280;62776;50.518;6.732;2022-12-11T12:24:50;95709.13;;;0.75;100.00
74346;BME280;62776;50.518;6.732;2022-12-11T12:27:45;95710.09;;;0.82;100.00
74346;BME280;62776;50.518;6.732;2022-12-11T12:37:38;95711.84;;;0.84;100.00
74346;BME280;62776;50.518;6.732;2022-12-11T12:49:45;95688.72;;;1.50;100.00
74346;BME280;62776;50.518;6.732;2022-12-11T12:52:38;95690.50;;;1.57;99.60
74346;BME280;62776;50.518;6.732;2022-12-11T12:55:28;95696.53;;;1.61;98.71
74346;BME280;62776;50.518;6.732;2022-12-11T12:58:39;95697.25;;;1.49;98.14
74346;BME280;62776;50.518;6.732;2022-12-11T13:01:27;95700.78;;;1.60;99.24
74346;BME280;62776;50.518;6.732;2022-12-11T13:07:31;95705.75;;;1.45;99.90
74346;BME280;62776;50.518;6.732;2022-12-11T13:10:37;95707.28;;;1.31;100.00
74346;BME280;62776;50.518;6.732;2022-12-11T13:13:39;95708.19;;;1.36;100.00
74346;BME280;62776;50.518;6.732;2022-12-11T13:16:37;95703.91;;;1.35;100.00
74346;BME280;62776;50.518;6.732;2022-12-11T13:25:01;95713.25;;;1.30;100.00
74346;BME280;62776;50.518;6.732;2022-12-11T13:27:49;95715.81;;;1.30;100.00
74346;BME280;62776;50.518;6.732;2022-12-11T13:30:35;95715.00;;;1.34;100.00
74346;BME280;62776;50.518;6.732;2022-12-11T13:33:21;95714.19;;;1.38;100.00
74346;BME280;62776;50.518;6.732;2022-12-11T13:39:03;95714.19;;;1.38;100.00
74346;BME280;62776;50.518;6.732;2022-12-11T13:42:02;95717.66;;;1.42;100.00
74346;BME280;62776;50.518;6.732;2022-12-11T13:44:50;95712.59;;;1.48;100.00
74346;BME280;62776;50.518;6.732;2022-12-11T13:47:37;95707.53;;;1.52;100.00
74346;BME280;62776;50.518;6.732;2022-12-11T13:50:30;95709.22;;;1.50;100.00
74346;BME280;62776;50.518;6.732;2022-12-11T13:53:19;95716.06;;;1.54;100.00
74346;BME280;62776;50.518;6.732;2022-12-11T13:56:14;95716.00;;;1.45;100.00
74346;BME280;62776;50.518;6.732;2022-12-11T13:59:02;95716.88;;;1.49;100.00
74346;BME280;62776;50.518;6.732;2022-12-11T14:01:48;95722.03;;;1.50;100.00
74346;BME280;62776;50.518;6.732;2022-12-11T14:04:34;95713.47;;;1.48;100.00
74346;BME280;62776;50.518;6.732;2022-12-11T14:07:31;95722.72;;;1.40;100.00
74346;BME280;62776;50.518;6.732;2022-12-11T14:10:30;95729.47;;;1.31;100.00
74346;BME280;62776;50.518;6.732;2022-12-11T14:13:24;95727.84;;;1.37;100.00
74346;BME280;62776;50.518;6.732;2022-12-11T14:16:22;95732.03;;;1.32;100.00
74346;BME280;62776;50.518;6.732;2022-12-11T14:19:13;95737.25;;;1.40;100.00
74346;BME280;62776;50.518;6.732;2022-12-11T14:22:03;95728.56;;;1.27;100.00
74346;BME280;62776;50.518;6.732;2022-12-11T14:25:00;95730.09;;;1.13;100.00
74346;BME280;62776;50.518;6.732;2022-12-11T14:27:51;95735.38;;;1.24;100.00
74346;BME280;62776;50.518;6.732;2022-12-11T14:30:38;95736.16;;;1.18;100.00
74346;BME280;62776;50.518;6.732;2022-12-11T14:33:39;95747.06;;;1.05;100.00
74346;BME280;62776;50.518;6.732;2022-12-11T14:36:28;95741.22;;;1.15;100.00
74346;BME280;62776;50.518;6.732;2022-12-11T14:39:36;95742.66;;;0.95;100.00
74346;BME280;62776;50.518;6.732;2022-12-11T14:42:29;95743.72;;;1.09;100.00
74346;BME280;62776;50.518;6.732;2022-12-11T14:45:30;95740.22;;;1.04;100.00
74346;BME280;62776;50.518;6.732;2022-12-11T14:48:22;95745.53;;;1.17;100.00
74346;BME280;62776;50.518;6.732;2022-12-11T14:51:13;95748.13;;;1.22;100.00
74346;BME280;62776;50.518;6.732;2022-12-11T14:54:02;95744.78;;;1.26;100.00
74346;BME280;62776;50.518;6.732;2022-12-11T14:56:49;95744.81;;;1.32;100.00
74346;BME280;62776;50.518;6.732;2022-12-11T14:59:44;95741.31;;;1.23;100.00
74346;BME280;62776;50.518;6.732;2022-12-11T15:02:35;95758.31;;;1.19;100.00
74346;BME280;62776;50.518;6.732;2022-12-11T15:05:21;95752.41;;;1.23;100.00
74346;BME280;62776;50.518;6.732;2022-12-11T15:11:02;95757.50;;;1.20;100.00
74346;BME280;62776;50.518;6.732;2022-12-11T15:13:57;95766.00;;;1.17;100.00
74346;BME280;62776;50.518;6.732;2022-12-11T15:16:44;95747.25;;;1.22;100.00
74346;BME280;62776;50.518;6.732;2022-12-11T15:19:34;95754.06;;;1.19;100.00
74346;BME280;62776;50.518;6.732;2022-12-11T15:22:30;95750.69;;;1.21;100.00
74346;BME280;62776;50.518;6.732;2022-12-11T15:25:22;95756.53;;;1.12;100.00
74346;BME280;62776;50.518;6.732;2022-12-11T15:28:31;95754.66;;;0.99;100.00
74346;BME280;62776;50.518;6.732;2022-12-11T15:31:30;95764.09;;;1.04;100.00
74346;BME280;62776;50.518;6.732;2022-12-11T15:34:22;95768.44;;;1.10;100.00
74346;BME280;62776;50.518;6.732;2022-12-11T15:40:08;95766.72;;;1.09;100.00
74346;BME280;62776;50.518;6.732;2022-12-11T15:42:54;95758.19;;;1.08;100.00
74346;BME280;62776;50.518;6.732;2022-12-11T15:45:40;95769.22;;;1.04;100.00
74346;BME280;62776;50.518;6.732;2022-12-11T15:48:28;95764.09;;;1.03;100.00
74346;BME280;62776;50.518;6.732;2022-12-11T15:51:14;95773.44;;;1.01;100.00
74346;BME280;62776;50.518;6.732;2022-12-11T15:54:00;95773.41;;;0.98;100.00
74346;BME280;62776;50.518;6.732;2022-12-11T15:56:46;95772.59;;;1.00;100.00
74346;BME280;62776;50.518;6.732;2022-12-11T15:59:33;95771.69;;;0.97;100.00
74346;BME280;62776;50.518;6.732;2022-12-11T16:02:19;95773.34;;;0.95;100.00